Airport Village, Philippines

12:14 PM +08 on 三月 24, 2017 (GMT +0800)
Don Bosco Better Living, Paranaque City | | Change Station

高度 56 ft 14.49 °N, 121.02 °E | Updated 9 minutes ago

Partly Cloudy
所により曇
95.2 °F
体感気温 107 °F
10.0
風 変数 風 から 南南東
Gusts 18.0 Mph

今日
高い -- | 低 -- °F
--% 降水確率
昨日
高い -- | 低 -- °F
Precip. -- インチ
気圧 29.92 インチ
視程 6.2 マイル
わずか 2500 ft
体感気温(暑さ) 107 °F
露点温度 75 °F
湿度 52%
降水 0.00 インチ
積雪深 利用不可。
5:57 AM 6:07 PM
二十六夜, 18% visible
METAR RPLL 240400Z 12009KT 060V220 9999 FEW025 34/23 Q1013 NOSIG RMK A2991
気圧 29.92 インチ
視程 6.2 マイル
わずか 2500 ft
体感気温(暑さ) 107 °F
露点温度 75 °F
湿度 52%
降水 0.00 インチ
積雪深 利用不可。
5:57 AM 6:07 PM
二十六夜, 18% visible
METAR RPLL 240400Z 12009KT 060V220 9999 FEW025 34/23 Q1013 NOSIG RMK A2991

Get Severe Weather Alerts

Thanks for signing up!

Be on the lookout for a verification email in your inbox.

You'll start receiving the daily forecast at 8 AM.

×

10-Day Weather Forecast

No radar image for this location.
×

Almanac

天文

Mar. 24, 2017 入り
実時間
常用薄明
航海薄明
天文薄明
可視光の長さ
可照時間
Tomorrow will be .
, % of the Moon is Illuminated

今日の極値

Country Highs Country Lows

Community

WunderPhotos

Upload Photos

1,962,540 写真がアップロードされました!

WunderBlog® & News

Nearby

空気品質

  空気品質 大気質指数 汚染物質
Not available.

積雪深

Station Depth 高度

地震活動

Distance Mag. Time & Date
Minimum magnitude displayed is 2.5.

地震活動

Distance Mag. Time & Date
Minimum magnitude displayed is 2.5.

沿岸の水温

地名 気温

Stations

最寄りの気象観測所

観測所位置 温度 体感気温(寒さ) 露点温度 湿度 Precip. 高度 更新日時 タイプする